Time;durP1;ratioP1;P1;durP2;ratioP2;P2;SDS_P1;SDS_P2;PMS_P1;PMS_P2;Temp;Humidity;BMP_temperature;BMP_pressure;BME280_temperature;BME280_humidity;BME280_pressure;Samples;Min_cycle;Max_cycle;Signal;HPM_P1;HPM_P2
2023/12/11 00:01:46;;;;;;;34.63;4.70;;;;;;;4.44;93.94;99481.53;4915362;29;20052;-72
2023/12/11 00:04:13;;;;;;;23.98;3.70;;;;;;;4.47;93.99;99475.88;4915154;29;20044;-72
2023/12/11 00:06:41;;;;;;;28.02;4.65;;;;;;;4.47;94.42;99465.16;4915415;29;20075;-72
2023/12/11 00:09:07;;;;;;;22.33;3.45;;;;;;;4.49;94.07;99459.66;4915840;29;20416;-72
2023/12/11 00:11:34;;;;;;;26.10;3.85;;;;;;;4.45;94.14;99456.38;4915560;29;20044;-72
2023/12/11 00:14:00;;;;;;;34.00;5.18;;;;;;;4.44;94.49;99454.69;4915085;29;20044;-72
2023/12/11 00:16:30;;;;;;;33.90;4.97;;;;;;;4.40;95.03;99448.72;4914517;29;20726;-72
2023/12/11 00:18:57;;;;;;;34.78;4.63;;;;;;;4.37;95.37;99442.75;4914323;29;20518;-73
2023/12/11 00:21:24;;;;;;;34.78;5.07;;;;;;;4.40;95.32;99432.63;4914603;29;20076;-72
2023/12/11 00:23:53;;;;;;;41.70;5.30;;;;;;;4.34;95.61;99427.75;4914733;29;20048;-72
2023/12/11 00:26:19;;;;;;;26.65;4.35;;;;;;;4.33;95.67;99430.56;4914975;29;20048;-71
2023/12/11 00:28:47;;;;;;;34.67;5.28;;;;;;;4.29;95.34;99413.00;4915070;29;20584;-71
2023/12/11 00:31:14;;;;;;;32.92;5.43;;;;;;;4.26;95.75;99414.09;4915096;29;20564;-71
2023/12/11 00:33:41;;;;;;;33.42;4.93;;;;;;;4.25;95.73;99408.88;4913301;29;20527;-72
2023/12/11 00:36:09;;;;;;;28.02;4.60;;;;;;;4.22;96.17;99395.72;4914602;29;20072;-71
2023/12/11 00:38:35;;;;;;;34.40;5.13;;;;;;;4.20;95.99;99386.91;4915105;29;20100;-72
2023/12/11 00:41:09;;;;;;;25.77;4.63;;;;;;;4.28;96.14;99384.44;5069664;27;20410;-69
2023/12/11 00:43:35;;;;;;;29.92;4.97;;;;;;;4.21;96.20;99377.88;5067293;28;20060;-71
2023/12/11 00:46:16;;;;;;;24.65;4.10;;;;;;;4.18;95.98;99367.41;5067492;28;20049;-72
2023/12/11 00:48:46;;;;;;;31.70;5.20;;;;;;;4.21;96.40;99357.28;5071972;28;20068;-71
2023/12/11 00:51:20;;;;;;;29.45;4.68;;;;;;;4.17;96.62;99355.84;5087168;28;20047;-71
2023/12/11 00:53:47;;;;;;;35.38;5.43;;;;;;;4.14;96.59;99346.22;5086898;28;20045;-71
2023/12/11 00:56:14;;;;;;;30.02;4.68;;;;;;;4.19;96.51;99336.91;5087167;28;20045;-71
2023/12/11 00:58:41;;;;;;;27.95;4.60;;;;;;;4.19;96.11;99335.06;5087239;28;20044;-71
2023/12/11 01:01:08;;;;;;;28.35;4.15;;;;;;;4.12;96.22;99326.72;5087484;28;20098;-71
2023/12/11 01:03:36;;;;;;;30.48;4.25;;;;;;;4.14;96.39;99331.94;5087266;28;20040;-71
2023/12/11 01:06:03;;;;;;;31.50;4.18;;;;;;;4.09;96.69;99312.69;5087154;28;20046;-71
2023/12/11 01:08:31;;;;;;;27.40;4.32;;;;;;;4.07;97.00;99302.09;5087094;28;20374;-72
2023/12/11 01:10:58;;;;;;;28.08;4.03;;;;;;;4.03;96.75;99292.59;5087237;28;21009;-71
2023/12/11 01:13:25;;;;;;;26.05;4.43;;;;;;;4.03;97.40;99289.06;5087047;28;20044;-71
2023/12/11 01:15:52;;;;;;;33.97;4.30;;;;;;;4.02;97.29;99288.19;5086752;28;20135;-70
2023/12/11 01:18:19;;;;;;;30.27;4.53;;;;;;;4.04;97.43;99286.25;5086311;28;20054;-71
2023/12/11 01:20:46;;;;;;;21.15;3.95;;;;;;;4.04;97.81;99280.88;5086493;28;20040;-70
2023/12/11 01:23:13;;;;;;;20.52;4.30;;;;;;;4.08;97.58;99285.00;5086769;28;20121;-70
2023/12/11 01:25:39;;;;;;;23.33;3.80;;;;;;;4.12;97.80;99275.72;5086780;28;20044;-71
2023/12/11 01:28:06;;;;;;;22.55;4.35;;;;;;;4.07;97.74;99267.22;5086899;28;20097;-71
2023/12/11 01:30:33;;;;;;;33.63;4.55;;;;;;;4.09;97.85;99262.56;5085951;28;20044;-71
2023/12/11 01:33:01;;;;;;;29.80;4.70;;;;;;;4.12;97.83;99261.47;5086286;28;20045;-71
2023/12/11 01:35:28;;;;;;;23.92;4.13;;;;;;;4.11;97.72;99249.84;5086296;28;20045;-71
2023/12/11 01:37:54;;;;;;;23.50;4.20;;;;;;;4.15;97.86;99242.41;5086117;28;20048;-71
2023/12/11 01:40:22;;;;;;;23.73;3.92;;;;;;;4.19;97.69;99257.25;5085703;28;20048;-71
2023/12/11 01:42:49;;;;;;;29.10;4.78;;;;;;;4.24;97.67;99270.28;5085660;28;20487;-70
2023/12/11 01:45:17;;;;;;;24.90;4.65;;;;;;;4.36;97.47;99253.13;5085707;28;20534;-71
2023/12/11 01:47:44;;;;;;;17.52;4.70;;;;;;;4.30;97.33;99248.28;5085558;28;20048;-71
2023/12/11 01:50:12;;;;;;;25.90;4.68;;;;;;;4.27;97.54;99240.50;5084268;28;20552;-71
2023/12/11 01:52:39;;;;;;;27.48;4.70;;;;;;;4.32;97.49;99230.22;5071896;28;20111;-70
2023/12/11 01:55:06;;;;;;;21.83;4.25;;;;;;;4.33;97.46;99231.94;5073054;28;20102;-71
2023/12/11 01:57:34;;;;;;;23.48;4.85;;;;;;;4.36;97.37;99227.13;5072647;28;20106;-71
2023/12/11 02:00:04;;;;;;;24.60;5.00;;;;;;;4.35;97.28;99225.44;5072141;28;20511;-71
2023/12/11 02:02:31;;;;;;;29.95;4.38;;;;;;;4.41;97.39;99218.69;5072519;28;20516;-71
2023/12/11 02:04:58;;;;;;;23.88;4.85;;;;;;;4.46;97.30;99207.53;5072157;28;20045;-71
2023/12/11 02:07:25;;;;;;;25.95;4.55;;;;;;;4.47;97.35;99211.94;5072641;28;20489;-71
2023/12/11 02:09:51;;;;;;;25.38;4.75;;;;;;;4.55;97.42;99204.91;5072740;28;20079;-71
2023/12/11 02:12:18;;;;;;;28.83;4.68;;;;;;;4.55;97.13;99198.69;5072157;28;20045;-71
2023/12/11 02:14:45;;;;;;;24.48;4.63;;;;;;;4.60;97.38;99200.00;5072212;28;20044;-70
2023/12/11 02:17:12;;;;;;;31.38;4.78;;;;;;;4.65;96.87;99205.78;5071876;28;20101;-70
2023/12/11 02:19:39;;;;;;;28.85;5.05;;;;;;;4.61;97.36;99190.09;5072004;28;20072;-71
2023/12/11 02:22:06;;;;;;;33.90;4.80;;;;;;;4.63;97.22;99186.28;5072529;28;20045;-71
2023/12/11 02:24:39;;;;;;;33.72;4.88;;;;;;;4.70;97.23;99174.03;5070688;28;20386;-71
2023/12/11 02:27:06;;;;;;;34.05;5.05;;;;;;;4.71;97.03;99172.19;5072842;28;20496;-71
2023/12/11 02:29:32;;;;;;;36.75;4.75;;;;;;;4.72;97.16;99163.13;5070997;28;20505;-72
2023/12/11 02:31:59;;;;;;;30.92;4.40;;;;;;;4.79;97.00;99168.81;5072142;28;20448;-72
2023/12/11 02:34:26;;;;;;;24.80;4.78;;;;;;;4.79;96.83;99163.44;5071492;28;20045;-72
2023/12/11 02:36:52;;;;;;;28.23;4.07;;;;;;;4.81;97.05;99169.53;5071541;28;20079;-73
2023/12/11 02:39:20;;;;;;;23.90;5.05;;;;;;;4.89;96.90;99161.63;5071254;28;20061;-72
2023/12/11 02:41:46;;;;;;;22.30;3.92;;;;;;;4.97;96.53;99164.53;5071323;28;20102;-71
2023/12/11 02:44:13;;;;;;;27.60;4.25;;;;;;;5.08;95.92;99159.03;5071508;28;20052;-71
2023/12/11 02:46:40;;;;;;;27.10;4.35;;;;;;;5.10;95.90;99157.03;5071216;28;20094;-72
2023/12/11 02:49:06;;;;;;;25.50;3.72;;;;;;;5.13;95.93;99158.59;5071785;28;20045;-72
2023/12/11 02:51:33;;;;;;;21.73;4.30;;;;;;;5.16;95.83;99151.13;5071505;28;20426;-72
2023/12/11 02:54:00;;;;;;;21.15;3.85;;;;;;;5.14;96.04;99153.09;5070873;28;20040;-72
2023/12/11 02:56:27;;;;;;;35.33;4.30;;;;;;;5.14;95.77;99147.72;5070968;28;20056;-72
2023/12/11 02:58:53;;;;;;;20.75;4.10;;;;;;;5.19;95.50;99140.06;5071372;28;20041;-72
2023/12/11 03:01:20;;;;;;;23.30;3.58;;;;;;;5.28;95.67;99155.34;5070984;28;20044;-72
2023/12/11 03:03:47;;;;;;;29.35;4.57;;;;;;;5.47;94.46;99154.50;5069968;28;20052;-72
2023/12/11 03:06:21;;;;;;;22.30;4.53;;;;;;;5.39;94.68;99140.06;5071040;28;20044;-72
2023/12/11 03:08:47;;;;;;;21.10;3.53;;;;;;;5.48;94.73;99148.16;5070389;28;20066;-72
2023/12/11 03:11:16;;;;;;;22.60;3.42;;;;;;;5.42;95.21;99151.41;5070156;28;20048;-72
2023/12/11 03:13:42;;;;;;;20.73;3.15;;;;;;;5.40;95.12;99163.28;5070891;28;20459;-71
2023/12/11 03:16:12;;;;;;;22.58;3.53;;;;;;;5.51;94.50;99150.56;5070820;28;20048;-71
2023/12/11 03:18:41;;;;;;;17.65;2.95;;;;;;;5.39;95.23;99150.84;5070796;28;20126;-72
2023/12/11 03:21:09;;;;;;;21.80;3.17;;;;;;;5.46;94.81;99162.72;5070328;28;20559;-70
2023/12/11 03:23:37;;;;;;;21.70;3.17;;;;;;;5.48;94.76;99166.13;5071161;28;20385;-72
2023/12/11 03:26:03;;;;;;;22.80;3.67;;;;;;;5.54;94.65;99165.56;5070054;28;20098;-72
2023/12/11 03:28:31;;;;;;;21.58;3.97;;;;;;;5.52;94.50;99168.41;5070164;28;20044;-72
2023/12/11 03:30:57;;;;;;;19.00;3.30;;;;;;;5.53;94.96;99169.25;5070102;28;20044;-72
2023/12/11 03:33:25;;;;;;;30.30;4.10;;;;;;;5.53;94.80;99178.16;5070389;28;20487;-72
2023/12/11 03:35:51;;;;;;;12.32;3.00;;;;;;;5.65;94.18;99183.41;5070553;28;20115;-72
2023/12/11 03:38:18;;;;;;;20.05;3.20;;;;;;;5.70;93.98;99175.72;5070448;28;20048;-72
2023/12/11 03:40:45;;;;;;;24.85;3.10;;;;;;;5.72;93.93;99179.16;5069996;28;20518;-71
2023/12/11 03:43:11;;;;;;;23.08;3.25;;;;;;;5.76;93.49;99186.78;5068788;28;20098;-70
2023/12/11 03:45:38;;;;;;;13.80;3.40;;;;;;;5.79;93.74;99185.63;5070988;28;20051;-71
2023/12/11 03:48:05;;;;;;;22.73;2.85;;;;;;;5.93;92.98;99181.69;5070428;28;20040;-71
2023/12/11 03:50:31;;;;;;;16.45;2.55;;;;;;;5.95;92.99;99191.28;5070308;28;20045;-72
2023/12/11 03:52:58;;;;;;;16.63;3.05;;;;;;;5.98;92.87;99187.47;5069857;28;20056;-74
2023/12/11 03:55:25;;;;;;;24.92;3.42;;;;;;;6.02;92.86;99188.88;5069805;28;20056;-70
2023/12/11 03:57:51;;;;;;;17.02;3.50;;;;;;;6.07;92.73;99205.44;5070047;28;20049;-71
2023/12/11 04:00:18;;;;;;;14.15;2.45;;;;;;;6.06;92.49;99207.28;5069784;28;20045;-71
2023/12/11 04:02:45;;;;;;;18.85;3.78;;;;;;;6.06;92.58;99206.44;5070029;27;20105;-71
2023/12/11 04:05:12;;;;;;;15.25;3.17;;;;;;;6.01;92.74;99206.03;5069924;28;20055;-71
2023/12/11 04:07:39;;;;;;;15.93;3.33;;;;;;;6.15;92.38;99208.25;5070144;28;20052;-68
2023/12/11 04:10:06;;;;;;;19.60;3.30;;;;;;;6.13;92.45;99205.72;5070185;28;20044;-71
2023/12/11 04:12:33;;;;;;;26.23;3.63;;;;;;;6.17;92.68;99210.84;5069750;28;20046;-71
2023/12/11 04:15:01;;;;;;;14.30;2.72;;;;;;;6.10;92.89;99210.56;5069486;28;20392;-71
2023/12/11 04:17:27;;;;;;;17.52;3.60;;;;;;;6.19;92.60;99220.47;5069899;28;20040;-71
2023/12/11 04:19:55;;;;;;;25.52;3.80;;;;;;;6.22;92.82;99213.94;5069852;28;20048;-72
2023/12/11 04:22:22;;;;;;;15.88;2.90;;;;;;;6.30;92.25;99220.28;5069351;28;20447;-73
2023/12/11 04:24:49;;;;;;;36.67;4.93;;;;;;;6.24;92.55;99228.94;5069243;28;20158;-72
2023/12/11 04:27:15;;;;;;;23.40;3.40;;;;;;;6.28;92.22;99219.59;5069610;28;20082;-72
2023/12/11 04:29:42;;;;;;;21.40;3.67;;;;;;;6.24;92.40;99237.00;5069639;28;20040;-70
2023/12/11 04:32:08;;;;;;;21.80;3.20;;;;;;;6.22;92.53;99235.47;5069839;28;20109;-72
2023/12/11 04:34:35;;;;;;;28.75;3.55;;;;;;;6.23;91.88;99238.00;5069665;28;20492;-71
2023/12/11 04:37:02;;;;;;;25.35;3.88;;;;;;;6.18;92.25;99228.69;5069902;28;20052;-72
2023/12/11 04:39:28;;;;;;;26.13;3.45;;;;;;;6.17;92.31;99238.59;5069476;28;21435;-72
2023/12/11 04:41:55;;;;;;;17.80;3.15;;;;;;;6.20;92.18;99238.31;5069380;28;20181;-72
2023/12/11 04:44:22;;;;;;;23.05;3.70;;;;;;;6.12;92.58;99238.16;5069721;28;20127;-72
2023/12/11 04:46:48;;;;;;;21.00;3.08;;;;;;;6.20;92.15;99248.22;5069423;28;20044;-72
2023/12/11 04:49:15;;;;;;;20.52;3.80;;;;;;;6.21;92.29;99253.47;5068423;28;20113;-72
2023/12/11 04:51:42;;;;;;;28.58;5.32;;;;;;;6.24;92.47;99255.84;5069292;28;20072;-71
2023/12/11 04:54:08;;;;;;;28.20;4.45;;;;;;;6.19;92.73;99251.91;5070220;28;20037;-72
2023/12/11 04:56:36;;;;;;;20.52;4.10;;;;;;;6.22;92.58;99257.84;5070044;28;20457;-72
2023/12/11 04:59:03;;;;;;;24.90;3.45;;;;;;;6.22;92.40;99257.84;5069453;28;20044;-72
2023/12/11 05:01:30;;;;;;;21.75;3.60;;;;;;;6.09;93.38;99251.94;5069106;28;20140;-72
2023/12/11 05:03:57;;;;;;;14.40;3.83;;;;;;;6.10;93.11;99254.47;5069562;28;20447;-72
2023/12/11 05:06:23;;;;;;;25.10;4.15;;;;;;;6.17;92.71;99257.44;5069146;28;20055;-72
2023/12/11 05:08:50;;;;;;;23.55;4.00;;;;;;;6.17;92.34;99268.22;5067647;28;20045;-73
2023/12/11 05:11:18;;;;;;;22.48;3.95;;;;;;;6.07;93.07;99267.34;5069160;28;20072;-72
2023/12/11 05:13:46;;;;;;;23.08;3.58;;;;;;;6.02;93.17;99272.31;5069801;28;20048;-72
2023/12/11 05:16:13;;;;;;;19.73;3.00;;;;;;;6.13;92.37;99269.47;5069040;28;20048;-72
2023/12/11 05:18:40;;;;;;;23.25;4.18;;;;;;;6.05;92.46;99272.03;5069677;28;20500;-71
2023/12/11 05:21:08;;;;;;;15.73;3.30;;;;;;;6.08;92.26;99261.00;5069822;28;20410;-72
2023/12/11 05:23:35;;;;;;;18.65;3.85;;;;;;;6.07;91.97;99276.31;5069299;28;20048;-73
2023/12/11 05:26:02;;;;;;;32.63;4.30;;;;;;;6.10;91.85;99272.47;5069753;28;20055;-72
2023/12/11 05:28:29;;;;;;;23.45;3.95;;;;;;;6.04;92.41;99270.34;5073639;28;20202;-71
2023/12/11 05:30:55;;;;;;;28.35;4.03;;;;;;;6.11;92.18;99279.53;5073645;28;20098;-70
2023/12/11 05:33:22;;;;;;;21.17;3.60;;;;;;;6.07;92.60;99280.81;5073444;28;20049;-71
2023/12/11 05:35:49;;;;;;;20.08;3.85;;;;;;;6.08;92.55;99277.16;5073633;28;20051;-71
2023/12/11 05:38:15;;;;;;;20.67;3.88;;;;;;;6.08;92.26;99277.16;5072094;28;20119;-71
2023/12/11 05:40:42;;;;;;;28.33;3.75;;;;;;;6.04;92.40;99278.41;5072505;28;20044;-71
2023/12/11 05:43:09;;;;;;;23.70;4.40;;;;;;;5.95;92.52;99281.94;5073807;28;20044;-71
2023/12/11 05:45:36;;;;;;;25.05;3.85;;;;;;;5.77;93.25;99274.56;5073325;28;20044;-71
2023/12/11 05:48:03;;;;;;;17.33;3.45;;;;;;;5.77;93.75;99284.47;5071436;28;20518;-71
2023/12/11 05:50:30;;;;;;;21.50;3.67;;;;;;;5.92;92.93;99282.25;5074817;28;20064;-67
2023/12/11 05:53:00;;;;;;;20.83;3.88;;;;;;;5.93;92.92;99283.94;5074157;28;20431;-67
2023/12/11 05:55:26;;;;;;;20.83;3.70;;;;;;;5.89;92.68;99287.88;5075476;28;20497;-67
2023/12/11 05:57:53;;;;;;;24.85;4.28;;;;;;;5.82;93.14;99291.16;5074734;28;20051;-67
2023/12/11 06:00:20;;;;;;;27.98;5.35;;;;;;;5.83;93.17;99292.84;5075180;28;20055;-67
2023/12/11 06:02:47;;;;;;;35.08;5.15;;;;;;;5.82;93.24;99290.31;5074379;28;20428;-67
2023/12/11 06:05:14;;;;;;;17.95;3.80;;;;;;;5.76;93.79;99288.16;5075108;28;20048;-67
2023/12/11 06:07:40;;;;;;;18.92;4.07;;;;;;;5.76;93.42;99290.84;5075371;28;20118;-68
2023/12/11 06:10:08;;;;;;;14.60;3.45;;;;;;;5.75;93.74;99297.22;5075494;28;20044;-67
2023/12/11 06:12:35;;;;;;;22.88;3.75;;;;;;;5.95;92.88;99303.47;5071241;28;20488;-67
2023/12/11 06:15:02;;;;;;;19.75;3.60;;;;;;;5.82;93.07;99296.53;5074695;28;20119;-67
2023/12/11 06:17:30;;;;;;;24.67;4.40;;;;;;;5.80;93.19;99295.00;5075111;28;20052;-67
2023/12/11 06:19:57;;;;;;;22.30;3.85;;;;;;;5.69;93.52;99298.63;5074518;28;20044;-67
2023/12/11 06:22:24;;;;;;;19.95;3.63;;;;;;;5.71;93.64;99287.75;5071951;28;20053;-72
2023/12/11 06:24:50;;;;;;;30.65;4.70;;;;;;;5.72;93.64;99293.00;5072105;28;20061;-72
2023/12/11 06:27:17;;;;;;;14.10;3.60;;;;;;;5.79;93.42;99293.25;5072382;28;20040;-72
2023/12/11 06:29:43;;;;;;;25.92;4.80;;;;;;;5.78;93.09;99289.72;5072067;28;20121;-72
2023/12/11 06:32:10;;;;;;;20.92;4.35;;;;;;;5.91;92.36;99299.38;5071010;28;20463;-72
2023/12/11 06:34:37;;;;;;;32.58;5.22;;;;;;;5.82;92.48;99303.75;5072463;28;20049;-68
2023/12/11 06:37:05;;;;;;;15.90;4.35;;;;;;;5.84;92.95;99297.25;5074353;28;20090;-67
2023/12/11 06:39:32;;;;;;;27.85;4.93;;;;;;;5.79;92.72;99302.22;5074447;28;20497;-67
2023/12/11 06:41:59;;;;;;;20.40;4.93;;;;;;;5.76;93.51;99299.78;5075411;28;20150;-67
2023/12/11 06:44:26;;;;;;;25.85;4.88;;;;;;;5.77;93.41;99297.94;5076306;28;20040;-68
2023/12/11 06:46:54;;;;;;;28.80;4.40;;;;;;;5.84;92.98;99297.25;5076068;28;20048;-66
2023/12/11 06:49:21;;;;;;;21.98;5.40;;;;;;;5.82;92.89;99299.22;5075969;28;20047;-68
2023/12/11 06:51:49;;;;;;;29.10;4.65;;;;;;;5.90;92.72;99305.75;5075667;28;20036;-69
2023/12/11 06:54:15;;;;;;;30.83;4.50;;;;;;;5.88;93.02;99305.03;5074675;28;20135;-71
2023/12/11 06:56:42;;;;;;;21.52;4.32;;;;;;;5.92;92.62;99309.16;5074723;28;20054;-71
2023/12/11 06:59:09;;;;;;;18.70;4.45;;;;;;;5.87;93.10;99312.25;5074236;28;20128;-70
2023/12/11 07:01:35;;;;;;;22.70;5.32;;;;;;;5.81;93.18;99313.69;5074212;28;20413;-73
2023/12/11 07:04:03;;;;;;;22.67;4.38;;;;;;;6.01;92.30;99319.06;5072196;28;20120;-72
2023/12/11 07:06:30;;;;;;;28.00;4.57;;;;;;;5.97;92.07;99317.63;5072378;28;20500;-72
2023/12/11 07:08:57;;;;;;;16.92;4.00;;;;;;;5.93;92.02;99316.22;5071063;28;20046;-71
2023/12/11 07:11:24;;;;;;;26.00;5.03;;;;;;;5.99;91.87;99321.06;5071322;28;20370;-71
2023/12/11 07:13:53;;;;;;;25.58;4.40;;;;;;;6.06;91.60;99322.19;5071094;28;20268;-71
2023/12/11 07:16:20;;;;;;;20.88;3.75;;;;;;;6.03;91.58;99322.47;5071479;28;20094;-72
2023/12/11 07:18:47;;;;;;;25.50;4.60;;;;;;;5.92;92.03;99333.38;5071461;28;20049;-70
2023/12/11 07:21:14;;;;;;;26.35;4.35;;;;;;;5.99;91.53;99321.06;5071164;28;20064;-71
2023/12/11 07:23:40;;;;;;;26.95;4.00;;;;;;;6.01;92.12;99327.16;5071632;28;20060;-71
2023/12/11 07:26:09;;;;;;;24.00;3.38;;;;;;;6.01;91.83;99328.00;5071466;28;20044;-72
2023/12/11 07:28:36;;;;;;;17.52;3.40;;;;;;;6.02;91.67;99337.78;5071411;28;20048;-72
2023/12/11 07:31:05;;;;;;;26.92;3.88;;;;;;;6.12;91.19;99335.94;5071661;28;20044;-72
2023/12/11 07:33:32;;;;;;;21.30;3.17;;;;;;;6.22;90.82;99352.09;5071455;28;20107;-71
2023/12/11 07:36:01;;;;;;;19.95;4.15;;;;;;;6.21;90.46;99342.31;5073366;28;20127;-70
2023/12/11 07:38:28;;;;;;;22.95;4.18;;;;;;;6.21;90.28;99342.31;5073488;28;20146;-71
2023/12/11 07:40:56;;;;;;;22.67;4.05;;;;;;;6.24;90.30;99342.03;5073916;28;20052;-71
2023/12/11 07:43:23;;;;;;;12.52;3.08;;;;;;;6.31;90.03;99347.69;5071765;28;20404;-71
2023/12/11 07:45:51;;;;;;;20.30;3.47;;;;;;;6.43;89.18;99342.00;5071176;28;20067;-72
2023/12/11 07:48:19;;;;;;;18.40;4.60;;;;;;;6.47;88.87;99347.13;5070810;28;20515;-74
2023/12/11 07:50:46;;;;;;;18.80;3.08;;;;;;;6.50;88.13;99341.44;5069830;28;20056;-73
2023/12/11 07:53:13;;;;;;;18.63;3.28;;;;;;;6.50;88.05;99336.06;5070554;28;20088;-73
2023/12/11 07:55:40;;;;;;;17.13;2.90;;;;;;;6.28;89.00;99346.16;5071393;28;20514;-70
2023/12/11 07:58:07;;;;;;;17.83;2.80;;;;;;;6.32;89.00;99349.41;5070902;28;20440;-70
2023/12/11 08:00:34;;;;;;;16.00;3.25;;;;;;;6.35;89.31;99341.91;5070384;28;20127;-70
2023/12/11 08:03:02;;;;;;;17.25;3.17;;;;;;;6.33;89.34;99345.69;5070083;28;20037;-69
2023/12/11 08:05:29;;;;;;;15.35;3.03;;;;;;;6.39;88.52;99346.00;5070160;28;20044;-69
2023/12/11 08:07:56;;;;;;;20.17;2.90;;;;;;;6.38;88.51;99341.59;5070225;28;20058;-69
2023/12/11 08:10:23;;;;;;;18.30;2.35;;;;;;;6.34;88.48;99348.25;5070275;28;20053;-69
2023/12/11 08:12:52;;;;;;;18.67;2.45;;;;;;;6.34;88.77;99348.25;5069908;28;20063;-70
2023/12/11 08:15:20;;;;;;;21.73;3.67;;;;;;;6.35;87.69;99339.22;5069991;28;20048;-69
2023/12/11 08:17:47;;;;;;;14.63;2.50;;;;;;;6.32;88.34;99338.63;5069731;28;20094;-70
2023/12/11 08:20:16;;;;;;;21.20;2.67;;;;;;;6.43;87.93;99342.00;5070110;28;20511;-69
2023/12/11 08:22:45;;;;;;;17.77;3.55;;;;;;;6.52;87.55;99345.69;5070095;28;20048;-69
2023/12/11 08:25:12;;;;;;;19.92;2.72;;;;;;;6.47;87.63;99339.06;5070016;28;20067;-69
2023/12/11 08:27:41;;;;;;;11.85;2.58;;;;;;;6.29;88.08;99337.06;5070383;28;20040;-69
2023/12/11 08:30:09;;;;;;;15.40;2.65;;;;;;;6.35;88.75;99335.63;5070320;28;20048;-69
2023/12/11 08:32:39;;;;;;;18.58;2.88;;;;;;;6.35;88.19;99328.44;5069576;28;20446;-69
2023/12/11 08:35:08;;;;;;;22.77;3.15;;;;;;;6.35;88.88;99333.81;5070349;28;20059;-69
2023/12/11 08:37:35;;;;;;;15.80;3.63;;;;;;;6.45;88.68;99338.34;5070198;28;20056;-69
2023/12/11 08:40:06;;;;;;;19.38;3.10;;;;;;;6.39;88.37;99329.84;5069275;28;20508;-70
2023/12/11 08:42:36;;;;;;;17.23;3.28;;;;;;;6.38;89.07;99330.84;5070013;28;20040;-70
2023/12/11 08:45:07;;;;;;;16.25;3.17;;;;;;;6.47;88.29;99333.66;5069842;28;20431;-70
2023/12/11 08:47:35;;;;;;;26.08;3.53;;;;;;;6.54;87.69;99329.38;5070028;28;20044;-70
2023/12/11 08:50:06;;;;;;;15.50;2.45;;;;;;;6.54;88.33;99326.69;5070196;28;20044;-70
2023/12/11 08:52:36;;;;;;;24.40;2.95;;;;;;;6.56;87.77;99325.56;5070151;28;20041;-70
2023/12/11 08:55:04;;;;;;;18.45;3.83;;;;;;;6.70;87.22;99318.88;5069566;28;20123;-69
2023/12/11 08:57:30;;;;;;;21.33;4.00;;;;;;;6.67;87.67;99319.16;5068668;28;20053;-69
2023/12/11 08:59:57;;;;;;;23.30;3.45;;;;;;;6.59;88.13;99313.66;5069925;28;20044;-69
2023/12/11 09:02:24;;;;;;;16.40;2.88;;;;;;;6.72;87.43;99319.56;5072792;28;20115;-68
2023/12/11 09:04:53;;;;;;;24.75;3.92;;;;;;;6.80;87.60;99316.16;5073610;28;20431;-69
2023/12/11 09:07:20;;;;;;;22.15;3.53;;;;;;;6.76;86.53;99314.75;5073418;28;20044;-73
2023/12/11 09:09:46;;;;;;;23.67;4.90;;;;;;;6.70;87.60;99325.09;5073565;28;20067;-71
2023/12/11 09:12:13;;;;;;;19.65;3.88;;;;;;;6.67;88.19;99319.16;5074198;28;20461;-70
2023/12/11 09:14:56;;;;;;;18.13;3.15;;;;;;;6.82;86.86;99323.13;5074039;28;20078;-72
2023/12/11 09:17:23;;;;;;;23.60;2.97;;;;;;;6.77;86.88;99319.13;5075824;28;20443;-73
2023/12/11 09:19:50;;;;;;;23.80;3.25;;;;;;;6.74;87.62;99322.13;5073929;28;20103;-73
2023/12/11 09:22:22;;;;;;;;;;;;;;;6.83;87.06;99315.88;5073999;28;20071;-69
2023/12/11 09:24:48;;;;;;;23.77;3.67;;;;;;;6.88;86.67;99317.13;5071937;28;19927;-68
2023/12/11 09:27:15;;;;;;;21.98;2.78;;;;;;;6.82;87.56;99317.72;5073397;28;20040;-68
2023/12/11 09:29:42;;;;;;;16.98;3.58;;;;;;;6.90;87.37;99323.19;5073470;28;20425;-68
2023/12/11 09:32:08;;;;;;;19.13;3.40;;;;;;;6.93;87.76;99311.31;5072428;28;20044;-68
2023/12/11 09:34:35;;;;;;;20.75;3.35;;;;;;;6.83;88.50;99310.47;5073687;28;20045;-68
2023/12/11 09:37:02;;;;;;;20.50;3.40;;;;;;;6.80;88.35;99311.59;5073230;28;20048;-68
2023/12/11 09:39:29;;;;;;;26.35;3.20;;;;;;;6.92;87.97;99310.44;5072949;28;20053;-67
2023/12/11 09:41:57;;;;;;;24.35;3.78;;;;;;;7.00;87.59;99309.69;5073075;28;20149;-68
2023/12/11 09:44:25;;;;;;;20.42;3.10;;;;;;;6.95;87.72;99302.06;5073255;28;20123;-69
2023/12/11 09:47:18;;;;;;;20.10;4.03;;;;;;;6.87;88.76;99307.34;5072942;28;20511;-67
2023/12/11 09:49:48;;;;;;;20.23;3.13;;;;;;;6.87;88.84;99318.13;5069972;28;20142;-68
2023/12/11 09:52:15;;;;;;;18.23;2.60;;;;;;;6.96;88.78;99317.25;5073650;28;20123;-68
2023/12/11 09:54:42;;;;;;;19.35;3.67;;;;;;;6.88;89.27;99313.56;5073117;28;20051;-67
2023/12/11 09:57:13;;;;;;;14.98;3.05;;;;;;;6.78;89.97;99313.59;5073729;28;20415;-68
2023/12/11 09:59:41;;;;;;;18.20;3.35;;;;;;;6.61;91.04;99314.34;5073102;28;20051;-69
2023/12/11 10:02:16;;;;;;;24.17;3.63;;;;;;;6.72;90.33;99320.44;5072969;28;20048;-68
2023/12/11 10:05:00;;;;;;;21.38;3.00;;;;;;;6.79;90.03;99320.69;5072245;28;20048;-68
2023/12/11 10:07:26;;;;;;;19.27;3.10;;;;;;;6.76;90.34;99314.75;5071846;28;20052;-68
2023/12/11 10:09:53;;;;;;;23.60;3.55;;;;;;;6.80;90.35;99311.59;5072724;28;20048;-68
2023/12/11 10:12:20;;;;;;;18.40;2.72;;;;;;;6.77;90.32;99314.59;5071725;28;20040;-67
2023/12/11 10:15:01;;;;;;;28.35;3.03;;;;;;;6.85;90.09;99325.50;5072406;28;20553;-72
2023/12/11 10:17:29;;;;;;;19.25;3.22;;;;;;;6.91;89.36;99308.75;5071205;28;20040;-72
2023/12/11 10:19:56;;;;;;;18.75;3.60;;;;;;;6.88;89.79;99310.88;5072146;28;20052;-72
2023/12/11 10:22:31;;;;;;;25.95;3.20;;;;;;;6.85;89.97;99300.41;5072585;28;20124;-73
2023/12/11 10:25:00;;;;;;;19.38;2.95;;;;;;;6.90;89.34;99298.09;5071951;28;20068;-71
2023/12/11 10:27:27;;;;;;;20.45;2.90;;;;;;;6.90;89.64;99301.63;5072109;28;20143;-71
2023/12/11 10:30:07;;;;;;;18.75;2.33;;;;;;;7.02;88.80;99302.34;5071995;28;20112;-72
2023/12/11 10:32:34;;;;;;;17.88;3.08;;;;;;;7.00;88.94;99299.78;5071666;28;20051;-72
2023/12/11 10:35:01;;;;;;;26.85;3.78;;;;;;;7.09;88.50;99292.63;5071929;28;20051;-72
2023/12/11 10:37:30;;;;;;;12.02;2.58;;;;;;;7.08;88.28;99292.78;5071471;28;20470;-72
2023/12/11 10:39:58;;;;;;;20.38;3.10;;;;;;;7.08;88.64;99292.78;5071144;28;20121;-72
2023/12/11 10:42:25;;;;;;;18.25;2.90;;;;;;;7.07;88.95;99289.25;5071880;28;20459;-73
2023/12/11 10:44:54;;;;;;;23.38;3.72;;;;;;;7.08;88.97;99290.09;5071535;28;20464;-72
2023/12/11 10:47:22;;;;;;;20.42;3.20;;;;;;;6.95;89.95;99285.88;5071425;28;20071;-72
2023/12/11 10:49:49;;;;;;;20.42;3.78;;;;;;;6.82;90.92;99282.69;5070916;28;20041;-70
2023/12/11 10:52:16;;;;;;;20.67;2.97;;;;;;;6.80;91.35;99279.25;5071367;28;20048;-69
2023/12/11 10:54:45;;;;;;;17.05;3.85;;;;;;;6.83;91.26;99281.69;5070761;28;20110;-69
2023/12/11 10:57:16;;;;;;;20.77;3.20;;;;;;;6.76;91.73;99277.03;5071524;28;20048;-69
2023/12/11 10:59:44;;;;;;;19.92;2.80;;;;;;;6.62;92.98;99281.03;5071208;28;20048;-69
2023/12/11 11:02:16;;;;;;;26.13;3.22;;;;;;;6.53;93.40;99269.25;5071131;28;20120;-69
2023/12/11 11:04:44;;;;;;;;;;;;;;;6.53;93.39;99271.13;5071894;28;20426;-69
2023/12/11 11:07:34;;;;;;;22.20;3.22;;;;;;;6.47;93.77;99255.56;5071435;28;19990;-69
2023/12/11 11:10:23;;;;;;;24.30;3.72;;;;;;;6.57;93.51;99259.06;5071198;28;20048;-69
2023/12/11 11:13:05;;;;;;;29.52;3.53;;;;;;;6.67;93.37;99255.34;5070252;28;20051;-70
2023/12/11 11:15:32;;;;;;;25.83;3.45;;;;;;;6.86;92.69;99257.13;5070606;28;20484;-68
2023/12/11 11:18:00;;;;;;;21.48;3.35;;;;;;;6.94;92.53;99254.53;5071261;28;20048;-71
2023/12/11 11:20:31;;;;;;;16.90;3.83;;;;;;;7.05;92.00;99255.34;5070553;28;20044;-69
2023/12/11 11:23:18;;;;;;;28.90;4.47;;;;;;;7.18;91.54;99245.03;5069852;28;20052;-69
2023/12/11 11:25:51;;;;;;;19.65;3.80;;;;;;;7.12;91.35;99251.06;5069734;28;20041;-71
2023/12/11 11:28:41;;;;;;;18.40;3.38;;;;;;;7.10;91.44;99253.91;5070685;28;20492;-70
2023/12/11 11:31:11;;;;;;;18.15;3.58;;;;;;;7.31;91.73;99245.56;5071001;28;20094;-70
2023/12/11 11:33:50;;;;;;;23.25;3.60;;;;;;;7.62;91.62;99237.16;5070095;28;20094;-70
2023/12/11 11:36:19;;;;;;;17.33;2.90;;;;;;;7.80;90.52;99238.84;5070381;28;20514;-70
2023/12/11 11:39:01;;;;;;;18.55;3.13;;;;;;;7.92;88.10;99231.38;5070063;28;20056;-71